sensor_id;sensor_type;location;lat;lon;timestamp;P1;durP1;ratioP1;P2;durP2;ratioP2
18820;SDS011;9539;59.332;18.034;2023-03-08T00:00:33;3.67;;;2.03;;
18820;SDS011;9539;59.332;18.034;2023-03-08T00:02:55;5.95;;;3.13;;
18820;SDS011;9539;59.332;18.034;2023-03-08T00:05:17;8.55;;;3.78;;
18820;SDS011;9539;59.332;18.034;2023-03-08T00:07:39;4.30;;;2.75;;
18820;SDS011;9539;59.332;18.034;2023-03-08T00:10:01;2.88;;;2.40;;
18820;SDS011;9539;59.332;18.034;2023-03-08T00:12:23;3.92;;;2.15;;
18820;SDS011;9539;59.332;18.034;2023-03-08T00:14:47;6.82;;;3.25;;
18820;SDS011;9539;59.332;18.034;2023-03-08T00:17:09;4.47;;;2.97;;
18820;SDS011;9539;59.332;18.034;2023-03-08T00:19:31;7.70;;;3.05;;
18820;SDS011;9539;59.332;18.034;2023-03-08T00:21:53;2.70;;;2.10;;
18820;SDS011;9539;59.332;18.034;2023-03-08T00:24:15;3.78;;;2.40;;
18820;SDS011;9539;59.332;18.034;2023-03-08T00:26:38;4.38;;;2.70;;
18820;SDS011;9539;59.332;18.034;2023-03-08T00:29:00;4.00;;;2.60;;
18820;SDS011;9539;59.332;18.034;2023-03-08T00:31:24;3.58;;;2.40;;
18820;SDS011;9539;59.332;18.034;2023-03-08T00:33:46;5.68;;;2.75;;
18820;SDS011;9539;59.332;18.034;2023-03-08T00:36:09;6.10;;;2.90;;
18820;SDS011;9539;59.332;18.034;2023-03-08T00:38:34;5.13;;;2.67;;
18820;SDS011;9539;59.332;18.034;2023-03-08T00:40:57;4.07;;;2.40;;
18820;SDS011;9539;59.332;18.034;2023-03-08T00:43:19;4.72;;;2.63;;
18820;SDS011;9539;59.332;18.034;2023-03-08T00:45:42;4.07;;;2.30;;
18820;SDS011;9539;59.332;18.034;2023-03-08T00:48:05;5.32;;;2.65;;
18820;SDS011;9539;59.332;18.034;2023-03-08T00:50:27;4.88;;;2.50;;
18820;SDS011;9539;59.332;18.034;2023-03-08T00:52:49;3.72;;;2.83;;
18820;SDS011;9539;59.332;18.034;2023-03-08T00:55:11;4.07;;;2.42;;
18820;SDS011;9539;59.332;18.034;2023-03-08T00:57:33;5.72;;;2.60;;
18820;SDS011;9539;59.332;18.034;2023-03-08T00:59:55;4.43;;;2.45;;
18820;SDS011;9539;59.332;18.034;2023-03-08T01:02:16;6.00;;;2.30;;
18820;SDS011;9539;59.332;18.034;2023-03-08T01:04:40;3.55;;;2.28;;
18820;SDS011;9539;59.332;18.034;2023-03-08T01:07:02;3.63;;;2.58;;
18820;SDS011;9539;59.332;18.034;2023-03-08T01:09:23;3.45;;;2.20;;
18820;SDS011;9539;59.332;18.034;2023-03-08T01:11:45;3.08;;;1.85;;
18820;SDS011;9539;59.332;18.034;2023-03-08T01:14:07;2.35;;;1.92;;
18820;SDS011;9539;59.332;18.034;2023-03-08T01:16:30;3.38;;;2.10;;
18820;SDS011;9539;59.332;18.034;2023-03-08T01:18:54;3.95;;;2.08;;
18820;SDS011;9539;59.332;18.034;2023-03-08T01:21:18;3.45;;;2.17;;
18820;SDS011;9539;59.332;18.034;2023-03-08T01:23:40;2.53;;;2.25;;
18820;SDS011;9539;59.332;18.034;2023-03-08T01:26:02;2.50;;;2.13;;
18820;SDS011;9539;59.332;18.034;2023-03-08T01:28:26;4.75;;;2.38;;
18820;SDS011;9539;59.332;18.034;2023-03-08T01:30:48;4.20;;;2.50;;
18820;SDS011;9539;59.332;18.034;2023-03-08T01:33:10;3.35;;;2.22;;
18820;SDS011;9539;59.332;18.034;2023-03-08T01:35:31;3.03;;;2.40;;
18820;SDS011;9539;59.332;18.034;2023-03-08T01:37:55;4.43;;;2.58;;
18820;SDS011;9539;59.332;18.034;2023-03-08T01:40:17;3.33;;;2.30;;
18820;SDS011;9539;59.332;18.034;2023-03-08T01:42:39;4.32;;;2.30;;
18820;SDS011;9539;59.332;18.034;2023-03-08T01:45:02;2.85;;;2.30;;
18820;SDS011;9539;59.332;18.034;2023-03-08T01:47:26;2.88;;;2.30;;
18820;SDS011;9539;59.332;18.034;2023-03-08T01:49:49;3.33;;;2.65;;
18820;SDS011;9539;59.332;18.034;2023-03-08T01:52:14;4.45;;;2.97;;
18820;SDS011;9539;59.332;18.034;2023-03-08T01:54:44;4.85;;;2.50;;
18820;SDS011;9539;59.332;18.034;2023-03-08T01:57:10;4.00;;;2.50;;
18820;SDS011;9539;59.332;18.034;2023-03-08T01:59:38;3.78;;;2.60;;
18820;SDS011;9539;59.332;18.034;2023-03-08T02:02:00;5.25;;;2.58;;
18820;SDS011;9539;59.332;18.034;2023-03-08T02:04:22;4.15;;;2.83;;
18820;SDS011;9539;59.332;18.034;2023-03-08T02:06:46;6.00;;;3.00;;
18820;SDS011;9539;59.332;18.034;2023-03-08T02:09:07;3.97;;;2.40;;
18820;SDS011;9539;59.332;18.034;2023-03-08T02:11:31;3.67;;;2.70;;
18820;SDS011;9539;59.332;18.034;2023-03-08T02:13:54;2.50;;;2.30;;
18820;SDS011;9539;59.332;18.034;2023-03-08T02:16:17;4.22;;;2.50;;
18820;SDS011;9539;59.332;18.034;2023-03-08T02:18:50;3.53;;;2.30;;
18820;SDS011;9539;59.332;18.034;2023-03-08T02:21:13;4.35;;;2.83;;
18820;SDS011;9539;59.332;18.034;2023-03-08T02:23:36;3.35;;;2.47;;
18820;SDS011;9539;59.332;18.034;2023-03-08T02:25:59;3.95;;;2.60;;
18820;SDS011;9539;59.332;18.034;2023-03-08T02:28:24;4.63;;;2.88;;
18820;SDS011;9539;59.332;18.034;2023-03-08T02:30:47;5.25;;;2.85;;
18820;SDS011;9539;59.332;18.034;2023-03-08T02:33:08;2.53;;;2.33;;
18820;SDS011;9539;59.332;18.034;2023-03-08T02:35:30;3.80;;;2.40;;
18820;SDS011;9539;59.332;18.034;2023-03-08T02:37:52;5.45;;;2.72;;
18820;SDS011;9539;59.332;18.034;2023-03-08T02:40:16;3.13;;;2.53;;
18820;SDS011;9539;59.332;18.034;2023-03-08T02:42:38;7.10;;;2.88;;
18820;SDS011;9539;59.332;18.034;2023-03-08T02:45:00;4.80;;;2.83;;
18820;SDS011;9539;59.332;18.034;2023-03-08T02:47:22;6.32;;;3.08;;
18820;SDS011;9539;59.332;18.034;2023-03-08T02:49:44;5.18;;;2.78;;
18820;SDS011;9539;59.332;18.034;2023-03-08T02:52:05;4.75;;;2.78;;
18820;SDS011;9539;59.332;18.034;2023-03-08T02:54:28;4.28;;;3.00;;
18820;SDS011;9539;59.332;18.034;2023-03-08T02:56:51;7.68;;;3.63;;
18820;SDS011;9539;59.332;18.034;2023-03-08T02:59:13;5.63;;;3.33;;
18820;SDS011;9539;59.332;18.034;2023-03-08T03:01:35;4.05;;;3.30;;
18820;SDS011;9539;59.332;18.034;2023-03-08T03:03:57;4.15;;;3.03;;
18820;SDS011;9539;59.332;18.034;2023-03-08T03:06:19;5.70;;;3.20;;
18820;SDS011;9539;59.332;18.034;2023-03-08T03:08:42;5.60;;;2.97;;
18820;SDS011;9539;59.332;18.034;2023-03-08T03:11:09;3.97;;;2.80;;
18820;SDS011;9539;59.332;18.034;2023-03-08T03:13:33;6.00;;;3.25;;
18820;SDS011;9539;59.332;18.034;2023-03-08T03:15:55;6.68;;;2.95;;
18820;SDS011;9539;59.332;18.034;2023-03-08T03:18:17;4.65;;;3.10;;
18820;SDS011;9539;59.332;18.034;2023-03-08T03:20:39;4.47;;;3.20;;
18820;SDS011;9539;59.332;18.034;2023-03-08T03:23:00;3.45;;;2.47;;
18820;SDS011;9539;59.332;18.034;2023-03-08T03:25:22;4.55;;;3.25;;
18820;SDS011;9539;59.332;18.034;2023-03-08T03:27:44;5.63;;;3.22;;
18820;SDS011;9539;59.332;18.034;2023-03-08T03:30:08;5.93;;;3.30;;
18820;SDS011;9539;59.332;18.034;2023-03-08T03:32:31;6.60;;;3.60;;
18820;SDS011;9539;59.332;18.034;2023-03-08T03:34:53;6.85;;;3.45;;
18820;SDS011;9539;59.332;18.034;2023-03-08T03:37:15;5.32;;;3.45;;
18820;SDS011;9539;59.332;18.034;2023-03-08T03:39:37;7.95;;;3.55;;
18820;SDS011;9539;59.332;18.034;2023-03-08T03:41:59;4.70;;;3.42;;
18820;SDS011;9539;59.332;18.034;2023-03-08T03:44:21;5.35;;;2.92;;
18820;SDS011;9539;59.332;18.034;2023-03-08T03:46:44;5.47;;;3.30;;
18820;SDS011;9539;59.332;18.034;2023-03-08T03:49:06;5.53;;;2.80;;
18820;SDS011;9539;59.332;18.034;2023-03-08T03:51:29;5.30;;;2.97;;
18820;SDS011;9539;59.332;18.034;2023-03-08T03:53:50;5.50;;;2.80;;
18820;SDS011;9539;59.332;18.034;2023-03-08T03:56:14;2.28;;;2.08;;
18820;SDS011;9539;59.332;18.034;2023-03-08T03:58:37;5.65;;;2.80;;
18820;SDS011;9539;59.332;18.034;2023-03-08T04:01:00;3.00;;;2.47;;
18820;SDS011;9539;59.332;18.034;2023-03-08T04:03:23;5.15;;;2.88;;
18820;SDS011;9539;59.332;18.034;2023-03-08T04:05:45;6.25;;;2.58;;
18820;SDS011;9539;59.332;18.034;2023-03-08T04:08:07;3.90;;;2.67;;
18820;SDS011;9539;59.332;18.034;2023-03-08T04:10:29;4.28;;;2.63;;
18820;SDS011;9539;59.332;18.034;2023-03-08T04:12:51;3.15;;;2.55;;
18820;SDS011;9539;59.332;18.034;2023-03-08T04:15:13;3.95;;;2.00;;
18820;SDS011;9539;59.332;18.034;2023-03-08T04:17:35;4.57;;;2.38;;
18820;SDS011;9539;59.332;18.034;2023-03-08T04:19:59;3.92;;;2.92;;
18820;SDS011;9539;59.332;18.034;2023-03-08T04:22:21;4.38;;;2.47;;
18820;SDS011;9539;59.332;18.034;2023-03-08T04:24:43;4.70;;;2.22;;
18820;SDS011;9539;59.332;18.034;2023-03-08T04:27:05;4.30;;;2.47;;
18820;SDS011;9539;59.332;18.034;2023-03-08T04:29:27;5.30;;;2.35;;
18820;SDS011;9539;59.332;18.034;2023-03-08T04:31:49;5.18;;;2.42;;
18820;SDS011;9539;59.332;18.034;2023-03-08T04:34:11;3.00;;;2.38;;
18820;SDS011;9539;59.332;18.034;2023-03-08T04:36:34;3.13;;;2.10;;
18820;SDS011;9539;59.332;18.034;2023-03-08T04:38:57;5.75;;;2.40;;
18820;SDS011;9539;59.332;18.034;2023-03-08T04:41:19;4.75;;;2.80;;
18820;SDS011;9539;59.332;18.034;2023-03-08T04:43:43;3.47;;;2.42;;
18820;SDS011;9539;59.332;18.034;2023-03-08T04:46:06;3.60;;;2.13;;
18820;SDS011;9539;59.332;18.034;2023-03-08T04:48:28;2.50;;;2.30;;
18820;SDS011;9539;59.332;18.034;2023-03-08T04:50:51;4.90;;;2.35;;
18820;SDS011;9539;59.332;18.034;2023-03-08T04:53:15;2.88;;;2.50;;
18820;SDS011;9539;59.332;18.034;2023-03-08T04:55:37;3.40;;;2.47;;
18820;SDS011;9539;59.332;18.034;2023-03-08T04:57:59;3.80;;;2.38;;
18820;SDS011;9539;59.332;18.034;2023-03-08T05:00:21;4.45;;;2.45;;
18820;SDS011;9539;59.332;18.034;2023-03-08T05:02:43;3.13;;;2.40;;
18820;SDS011;9539;59.332;18.034;2023-03-08T05:05:05;3.08;;;2.35;;
18820;SDS011;9539;59.332;18.034;2023-03-08T05:07:27;3.88;;;2.40;;
18820;SDS011;9539;59.332;18.034;2023-03-08T05:09:51;4.07;;;2.20;;
18820;SDS011;9539;59.332;18.034;2023-03-08T05:12:12;4.43;;;2.30;;
18820;SDS011;9539;59.332;18.034;2023-03-08T05:14:34;4.10;;;2.30;;
18820;SDS011;9539;59.332;18.034;2023-03-08T05:16:56;3.78;;;2.30;;
18820;SDS011;9539;59.332;18.034;2023-03-08T05:19:18;3.72;;;2.40;;
18820;SDS011;9539;59.332;18.034;2023-03-08T05:21:40;5.32;;;2.80;;
18820;SDS011;9539;59.332;18.034;2023-03-08T05:24:02;4.00;;;2.55;;
18820;SDS011;9539;59.332;18.034;2023-03-08T05:26:26;3.65;;;2.25;;
18820;SDS011;9539;59.332;18.034;2023-03-08T05:28:48;3.13;;;2.58;;
18820;SDS011;9539;59.332;18.034;2023-03-08T05:31:11;4.57;;;2.95;;
18820;SDS011;9539;59.332;18.034;2023-03-08T05:33:35;6.28;;;2.70;;
18820;SDS011;9539;59.332;18.034;2023-03-08T05:35:57;4.13;;;2.80;;
18820;SDS011;9539;59.332;18.034;2023-03-08T05:38:19;53.30;;;3.75;;
18820;SDS011;9539;59.332;18.034;2023-03-08T05:40:42;3.67;;;2.78;;
18820;SDS011;9539;59.332;18.034;2023-03-08T05:43:05;5.82;;;2.95;;
18820;SDS011;9539;59.332;18.034;2023-03-08T05:45:27;6.43;;;2.75;;
18820;SDS011;9539;59.332;18.034;2023-03-08T05:47:48;3.00;;;2.63;;
18820;SDS011;9539;59.332;18.034;2023-03-08T05:50:11;4.18;;;2.90;;
18820;SDS011;9539;59.332;18.034;2023-03-08T05:52:33;6.95;;;2.95;;
18820;SDS011;9539;59.332;18.034;2023-03-08T05:54:55;7.03;;;2.90;;
18820;SDS011;9539;59.332;18.034;2023-03-08T05:57:17;9.13;;;3.10;;
18820;SDS011;9539;59.332;18.034;2023-03-08T05:59:40;7.25;;;3.22;;
18820;SDS011;9539;59.332;18.034;2023-03-08T06:02:02;5.53;;;3.08;;
18820;SDS011;9539;59.332;18.034;2023-03-08T06:04:24;8.00;;;2.95;;
18820;SDS011;9539;59.332;18.034;2023-03-08T06:06:45;5.30;;;3.05;;
18820;SDS011;9539;59.332;18.034;2023-03-08T06:09:07;4.32;;;2.53;;
18820;SDS011;9539;59.332;18.034;2023-03-08T06:11:29;7.80;;;3.08;;
18820;SDS011;9539;59.332;18.034;2023-03-08T06:13:51;5.45;;;3.00;;
18820;SDS011;9539;59.332;18.034;2023-03-08T06:16:15;19.88;;;3.20;;
18820;SDS011;9539;59.332;18.034;2023-03-08T06:18:37;5.43;;;2.65;;
18820;SDS011;9539;59.332;18.034;2023-03-08T06:21:01;5.22;;;2.78;;
18820;SDS011;9539;59.332;18.034;2023-03-08T06:23:24;3.25;;;2.25;;
18820;SDS011;9539;59.332;18.034;2023-03-08T06:25:46;4.13;;;2.70;;
18820;SDS011;9539;59.332;18.034;2023-03-08T06:28:08;10.50;;;3.50;;
18820;SDS011;9539;59.332;18.034;2023-03-08T06:30:30;8.07;;;2.70;;
18820;SDS011;9539;59.332;18.034;2023-03-08T06:32:53;4.97;;;2.50;;
18820;SDS011;9539;59.332;18.034;2023-03-08T06:35:15;4.25;;;2.63;;
18820;SDS011;9539;59.332;18.034;2023-03-08T06:37:37;5.00;;;2.72;;
18820;SDS011;9539;59.332;18.034;2023-03-08T06:39:59;3.38;;;2.50;;
18820;SDS011;9539;59.332;18.034;2023-03-08T06:42:21;4.50;;;3.17;;
18820;SDS011;9539;59.332;18.034;2023-03-08T06:44:43;7.35;;;2.90;;
18820;SDS011;9539;59.332;18.034;2023-03-08T06:47:04;8.48;;;3.72;;
18820;SDS011;9539;59.332;18.034;2023-03-08T06:49:28;8.77;;;3.30;;
18820;SDS011;9539;59.332;18.034;2023-03-08T06:51:50;10.20;;;3.22;;
18820;SDS011;9539;59.332;18.034;2023-03-08T06:54:12;4.82;;;3.15;;
18820;SDS011;9539;59.332;18.034;2023-03-08T06:56:36;5.32;;;2.75;;
18820;SDS011;9539;59.332;18.034;2023-03-08T06:58:58;7.05;;;2.92;;
18820;SDS011;9539;59.332;18.034;2023-03-08T07:01:20;9.25;;;3.33;;
18820;SDS011;9539;59.332;18.034;2023-03-08T07:03:42;9.48;;;3.60;;
18820;SDS011;9539;59.332;18.034;2023-03-08T07:06:07;7.30;;;3.38;;
18820;SDS011;9539;59.332;18.034;2023-03-08T07:08:30;6.38;;;3.25;;
18820;SDS011;9539;59.332;18.034;2023-03-08T07:10:52;3.50;;;1.85;;
18820;SDS011;9539;59.332;18.034;2023-03-08T07:13:14;5.38;;;3.10;;
18820;SDS011;9539;59.332;18.034;2023-03-08T07:15:38;6.85;;;3.50;;
18820;SDS011;9539;59.332;18.034;2023-03-08T07:18:00;6.57;;;3.42;;
18820;SDS011;9539;59.332;18.034;2023-03-08T07:20:23;6.63;;;2.88;;
18820;SDS011;9539;59.332;18.034;2023-03-08T07:22:47;6.68;;;2.88;;
18820;SDS011;9539;59.332;18.034;2023-03-08T07:25:10;3.92;;;3.30;;
18820;SDS011;9539;59.332;18.034;2023-03-08T07:27:32;4.80;;;3.00;;
18820;SDS011;9539;59.332;18.034;2023-03-08T07:29:54;5.35;;;3.13;;
18820;SDS011;9539;59.332;18.034;2023-03-08T07:32:17;8.07;;;3.33;;
18820;SDS011;9539;59.332;18.034;2023-03-08T07:34:38;7.15;;;3.13;;
18820;SDS011;9539;59.332;18.034;2023-03-08T07:37:00;5.68;;;3.83;;
18820;SDS011;9539;59.332;18.034;2023-03-08T07:39:24;8.32;;;3.50;;
18820;SDS011;9539;59.332;18.034;2023-03-08T07:41:46;6.30;;;3.53;;
18820;SDS011;9539;59.332;18.034;2023-03-08T07:44:09;20.15;;;3.30;;
18820;SDS011;9539;59.332;18.034;2023-03-08T07:46:31;4.07;;;2.78;;
18820;SDS011;9539;59.332;18.034;2023-03-08T07:48:53;6.43;;;3.05;;
18820;SDS011;9539;59.332;18.034;2023-03-08T07:51:15;4.85;;;2.95;;
18820;SDS011;9539;59.332;18.034;2023-03-08T07:53:36;5.47;;;2.88;;
18820;SDS011;9539;59.332;18.034;2023-03-08T07:56:00;4.10;;;2.58;;
18820;SDS011;9539;59.332;18.034;2023-03-08T07:58:22;4.00;;;2.53;;
18820;SDS011;9539;59.332;18.034;2023-03-08T08:00:44;5.85;;;2.72;;
18820;SDS011;9539;59.332;18.034;2023-03-08T08:03:06;3.92;;;2.60;;
18820;SDS011;9539;59.332;18.034;2023-03-08T08:05:28;4.07;;;2.55;;
18820;SDS011;9539;59.332;18.034;2023-03-08T08:07:50;8.65;;;3.20;;
18820;SDS011;9539;59.332;18.034;2023-03-08T08:10:11;8.48;;;2.80;;
18820;SDS011;9539;59.332;18.034;2023-03-08T08:12:35;5.43;;;2.28;;
18820;SDS011;9539;59.332;18.034;2023-03-08T08:14:57;4.55;;;2.30;;
18820;SDS011;9539;59.332;18.034;2023-03-08T08:17:19;5.75;;;3.47;;
18820;SDS011;9539;59.332;18.034;2023-03-08T08:19:41;5.32;;;2.50;;
18820;SDS011;9539;59.332;18.034;2023-03-08T08:22:03;6.47;;;3.38;;
18820;SDS011;9539;59.332;18.034;2023-03-08T08:24:26;7.20;;;3.13;;
18820;SDS011;9539;59.332;18.034;2023-03-08T08:26:48;8.57;;;3.45;;
18820;SDS011;9539;59.332;18.034;2023-03-08T08:29:11;5.63;;;3.00;;
18820;SDS011;9539;59.332;18.034;2023-03-08T08:31:33;4.05;;;2.90;;
18820;SDS011;9539;59.332;18.034;2023-03-08T08:33:55;7.35;;;2.95;;
18820;SDS011;9539;59.332;18.034;2023-03-08T08:36:18;9.40;;;3.00;;
18820;SDS011;9539;59.332;18.034;2023-03-08T08:38:41;4.47;;;2.90;;
18820;SDS011;9539;59.332;18.034;2023-03-08T08:41:03;3.97;;;2.90;;
18820;SDS011;9539;59.332;18.034;2023-03-08T08:43:27;6.35;;;3.20;;
18820;SDS011;9539;59.332;18.034;2023-03-08T08:45:52;7.00;;;3.13;;
18820;SDS011;9539;59.332;18.034;2023-03-08T08:48:15;5.97;;;3.17;;
18820;SDS011;9539;59.332;18.034;2023-03-08T08:50:37;6.25;;;3.47;;
18820;SDS011;9539;59.332;18.034;2023-03-08T08:52:59;5.13;;;3.05;;
18820;SDS011;9539;59.332;18.034;2023-03-08T08:55:21;7.30;;;3.72;;
18820;SDS011;9539;59.332;18.034;2023-03-08T08:57:42;7.63;;;3.28;;
18820;SDS011;9539;59.332;18.034;2023-03-08T09:00:05;5.32;;;2.70;;
18820;SDS011;9539;59.332;18.034;2023-03-08T09:02:30;7.05;;;3.10;;
18820;SDS011;9539;59.332;18.034;2023-03-08T09:04:52;3.85;;;2.63;;
18820;SDS011;9539;59.332;18.034;2023-03-08T09:07:14;4.05;;;2.53;;
18820;SDS011;9539;59.332;18.034;2023-03-08T09:09:36;4.30;;;2.92;;
18820;SDS011;9539;59.332;18.034;2023-03-08T09:11:58;5.45;;;2.63;;
18820;SDS011;9539;59.332;18.034;2023-03-08T09:14:20;3.22;;;2.30;;
18820;SDS011;9539;59.332;18.034;2023-03-08T09:16:41;4.97;;;2.40;;
18820;SDS011;9539;59.332;18.034;2023-03-08T09:19:05;6.57;;;2.42;;
18820;SDS011;9539;59.332;18.034;2023-03-08T09:21:28;5.07;;;2.70;;
18820;SDS011;9539;59.332;18.034;2023-03-08T09:23:51;4.65;;;2.42;;
18820;SDS011;9539;59.332;18.034;2023-03-08T09:26:13;5.53;;;2.90;;
18820;SDS011;9539;59.332;18.034;2023-03-08T09:28:35;4.22;;;2.38;;
18820;SDS011;9539;59.332;18.034;2023-03-08T09:30:57;6.85;;;2.70;;
18820;SDS011;9539;59.332;18.034;2023-03-08T09:33:19;4.70;;;2.70;;
18820;SDS011;9539;59.332;18.034;2023-03-08T09:35:42;5.28;;;2.92;;
18820;SDS011;9539;59.332;18.034;2023-03-08T09:38:04;4.05;;;2.80;;
18820;SDS011;9539;59.332;18.034;2023-03-08T09:40:26;6.63;;;3.17;;
18820;SDS011;9539;59.332;18.034;2023-03-08T09:42:54;3.92;;;2.63;;
18820;SDS011;9539;59.332;18.034;2023-03-08T09:45:24;5.78;;;2.80;;
18820;SDS011;9539;59.332;18.034;2023-03-08T09:47:48;6.15;;;2.92;;
18820;SDS011;9539;59.332;18.034;2023-03-08T09:50:18;5.20;;;2.80;;
18820;SDS011;9539;59.332;18.034;2023-03-08T09:52:48;4.35;;;2.85;;
18820;SDS011;9539;59.332;18.034;2023-03-08T09:55:15;8.30;;;3.38;;
18820;SDS011;9539;59.332;18.034;2023-03-08T09:57:40;11.02;;;2.88;;
18820;SDS011;9539;59.332;18.034;2023-03-08T10:00:16;5.75;;;2.83;;
18820;SDS011;9539;59.332;18.034;2023-03-08T10:02:42;5.90;;;2.97;;
18820;SDS011;9539;59.332;18.034;2023-03-08T10:05:15;5.82;;;2.97;;
18820;SDS011;9539;59.332;18.034;2023-03-08T10:07:44;4.10;;;2.60;;
18820;SDS011;9539;59.332;18.034;2023-03-08T10:10:27;6.25;;;3.00;;
18820;SDS011;9539;59.332;18.034;2023-03-08T10:13:02;7.07;;;3.05;;
18820;SDS011;9539;59.332;18.034;2023-03-08T10:15:35;5.82;;;3.00;;
18820;SDS011;9539;59.332;18.034;2023-03-08T10:18:03;15.02;;;4.03;;
18820;SDS011;9539;59.332;18.034;2023-03-08T10:20:33;3.25;;;2.53;;
18820;SDS011;9539;59.332;18.034;2023-03-08T10:22:59;5.57;;;2.95;;
18820;SDS011;9539;59.332;18.034;2023-03-08T10:25:23;6.70;;;2.72;;
18820;SDS011;9539;59.332;18.034;2023-03-08T10:27:47;8.30;;;3.25;;
18820;SDS011;9539;59.332;18.034;2023-03-08T10:30:14;7.38;;;3.10;;
18820;SDS011;9539;59.332;18.034;2023-03-08T10:32:41;5.20;;;2.63;;
18820;SDS011;9539;59.332;18.034;2023-03-08T10:35:04;4.57;;;2.65;;
18820;SDS011;9539;59.332;18.034;2023-03-08T10:37:28;8.32;;;3.03;;
18820;SDS011;9539;59.332;18.034;2023-03-08T10:39:54;8.65;;;2.80;;
18820;SDS011;9539;59.332;18.034;2023-03-08T10:42:22;7.43;;;3.03;;
18820;SDS011;9539;59.332;18.034;2023-03-08T10:44:52;6.90;;;3.03;;
18820;SDS011;9539;59.332;18.034;2023-03-08T10:47:17;5.18;;;2.92;;
18820;SDS011;9539;59.332;18.034;2023-03-08T10:49:40;5.10;;;3.00;;
18820;SDS011;9539;59.332;18.034;2023-03-08T10:52:04;4.57;;;2.85;;
18820;SDS011;9539;59.332;18.034;2023-03-08T10:54:26;5.40;;;3.50;;
18820;SDS011;9539;59.332;18.034;2023-03-08T10:56:51;6.60;;;3.10;;
18820;SDS011;9539;59.332;18.034;2023-03-08T10:59:16;4.65;;;2.90;;
18820;SDS011;9539;59.332;18.034;2023-03-08T11:01:46;4.40;;;2.88;;
18820;SDS011;9539;59.332;18.034;2023-03-08T11:04:12;11.27;;;3.28;;
18820;SDS011;9539;59.332;18.034;2023-03-08T11:06:35;5.75;;;3.53;;
18820;SDS011;9539;59.332;18.034;2023-03-08T11:08:58;5.70;;;2.88;;
18820;SDS011;9539;59.332;18.034;2023-03-08T11:11:21;6.57;;;3.22;;
18820;SDS011;9539;59.332;18.034;2023-03-08T11:13:45;8.63;;;3.65;;
18820;SDS011;9539;59.332;18.034;2023-03-08T11:16:20;2.90;;;2.47;;
18820;SDS011;9539;59.332;18.034;2023-03-08T11:19:01;5.93;;;2.78;;
18820;SDS011;9539;59.332;18.034;2023-03-08T11:21:31;4.45;;;2.90;;
18820;SDS011;9539;59.332;18.034;2023-03-08T11:24:04;5.10;;;3.00;;
18820;SDS011;9539;59.332;18.034;2023-03-08T11:26:38;6.78;;;3.25;;
18820;SDS011;9539;59.332;18.034;2023-03-08T11:29:11;7.65;;;3.42;;
18820;SDS011;9539;59.332;18.034;2023-03-08T11:31:44;4.22;;;2.63;;
18820;SDS011;9539;59.332;18.034;2023-03-08T11:34:19;5.20;;;3.10;;
18820;SDS011;9539;59.332;18.034;2023-03-08T11:36:56;6.93;;;2.90;;
18820;SDS011;9539;59.332;18.034;2023-03-08T11:39:28;5.00;;;2.90;;
18820;SDS011;9539;59.332;18.034;2023-03-08T11:41:55;5.95;;;2.90;;
18820;SDS011;9539;59.332;18.034;2023-03-08T11:44:31;4.07;;;2.60;;
18820;SDS011;9539;59.332;18.034;2023-03-08T11:47:21;2.95;;;2.33;;
18820;SDS011;9539;59.332;18.034;2023-03-08T11:49:46;4.20;;;2.53;;
18820;SDS011;9539;59.332;18.034;2023-03-08T11:52:21;6.07;;;2.53;;
18820;SDS011;9539;59.332;18.034;2023-03-08T11:54:59;6.10;;;3.20;;
18820;SDS011;9539;59.332;18.034;2023-03-08T11:57:41;6.72;;;3.08;;
18820;SDS011;9539;59.332;18.034;2023-03-08T12:02:43;8.90;;;2.58;;
18820;SDS011;9539;59.332;18.034;2023-03-08T12:05:08;6.75;;;2.38;;
18820;SDS011;9539;59.332;18.034;2023-03-08T12:07:37;3.38;;;2.60;;
18820;SDS011;9539;59.332;18.034;2023-03-08T12:10:07;2.72;;;2.20;;
18820;SDS011;9539;59.332;18.034;2023-03-08T12:12:36;4.15;;;2.70;;
18820;SDS011;9539;59.332;18.034;2023-03-08T12:15:05;12.07;;;3.05;;
18820;SDS011;9539;59.332;18.034;2023-03-08T12:17:37;6.47;;;2.92;;
18820;SDS011;9539;59.332;18.034;2023-03-08T12:20:04;5.43;;;2.83;;
18820;SDS011;9539;59.332;18.034;2023-03-08T12:22:35;4.90;;;2.60;;
18820;SDS011;9539;59.332;18.034;2023-03-08T12:25:06;4.30;;;2.55;;
18820;SDS011;9539;59.332;18.034;2023-03-08T12:27:35;4.07;;;2.50;;
18820;SDS011;9539;59.332;18.034;2023-03-08T12:30:03;5.68;;;2.90;;
18820;SDS011;9539;59.332;18.034;2023-03-08T12:32:38;4.32;;;2.85;;
18820;SDS011;9539;59.332;18.034;2023-03-08T12:35:02;4.38;;;2.30;;
18820;SDS011;9539;59.332;18.034;2023-03-08T12:37:27;3.05;;;2.38;;
18820;SDS011;9539;59.332;18.034;2023-03-08T12:40:00;3.80;;;2.33;;
18820;SDS011;9539;59.332;18.034;2023-03-08T12:42:28;4.55;;;2.60;;
18820;SDS011;9539;59.332;18.034;2023-03-08T12:44:52;5.78;;;2.28;;
18820;SDS011;9539;59.332;18.034;2023-03-08T12:47:30;3.00;;;2.30;;
18820;SDS011;9539;59.332;18.034;2023-03-08T12:49:53;4.32;;;2.40;;
18820;SDS011;9539;59.332;18.034;2023-03-08T12:52:23;6.10;;;2.75;;
18820;SDS011;9539;59.332;18.034;2023-03-08T12:54:54;5.80;;;2.25;;
18820;SDS011;9539;59.332;18.034;2023-03-08T12:57:19;4.30;;;2.58;;
18820;SDS011;9539;59.332;18.034;2023-03-08T12:59:43;3.88;;;2.40;;
18820;SDS011;9539;59.332;18.034;2023-03-08T13:05:13;4.13;;;2.47;;
18820;SDS011;9539;59.332;18.034;2023-03-08T13:07:39;4.53;;;2.30;;
18820;SDS011;9539;59.332;18.034;2023-03-08T13:10:17;3.05;;;2.30;;
18820;SDS011;9539;59.332;18.034;2023-03-08T13:12:49;3.28;;;2.20;;
18820;SDS011;9539;59.332;18.034;2023-03-08T13:15:24;2.83;;;2.25;;
18820;SDS011;9539;59.332;18.034;2023-03-08T13:17:48;4.40;;;2.20;;
18820;SDS011;9539;59.332;18.034;2023-03-08T13:20:15;4.55;;;2.53;;
18820;SDS011;9539;59.332;18.034;2023-03-08T13:22:42;3.05;;;2.10;;
18820;SDS011;9539;59.332;18.034;2023-03-08T13:25:14;3.42;;;2.20;;
18820;SDS011;9539;59.332;18.034;2023-03-08T13:27:52;3.00;;;2.08;;
18820;SDS011;9539;59.332;18.034;2023-03-08T13:30:21;5.38;;;2.20;;
18820;SDS011;9539;59.332;18.034;2023-03-08T13:32:44;3.83;;;2.30;;
18820;SDS011;9539;59.332;18.034;2023-03-08T13:35:10;3.38;;;2.30;;
18820;SDS011;9539;59.332;18.034;2023-03-08T13:37:37;3.63;;;2.13;;
18820;SDS011;9539;59.332;18.034;2023-03-08T13:40:00;4.00;;;2.03;;
18820;SDS011;9539;59.332;18.034;2023-03-08T13:42:24;2.85;;;2.22;;
18820;SDS011;9539;59.332;18.034;2023-03-08T13:44:47;3.53;;;2.13;;
18820;SDS011;9539;59.332;18.034;2023-03-08T13:47:15;3.47;;;2.20;;
18820;SDS011;9539;59.332;18.034;2023-03-08T13:49:41;3.53;;;2.17;;
18820;SDS011;9539;59.332;18.034;2023-03-08T13:52:12;4.07;;;2.10;;
18820;SDS011;9539;59.332;18.034;2023-03-08T13:54:40;3.47;;;2.17;;
18820;SDS011;9539;59.332;18.034;2023-03-08T13:57:15;4.00;;;2.17;;
18820;SDS011;9539;59.332;18.034;2023-03-08T13:59:45;3.47;;;2.30;;
18820;SDS011;9539;59.332;18.034;2023-03-08T14:02:17;2.22;;;2.00;;
18820;SDS011;9539;59.332;18.034;2023-03-08T14:04:41;6.78;;;2.10;;
18820;SDS011;9539;59.332;18.034;2023-03-08T14:07:03;3.08;;;2.03;;
18820;SDS011;9539;59.332;18.034;2023-03-08T14:09:26;4.15;;;1.80;;
18820;SDS011;9539;59.332;18.034;2023-03-08T14:11:54;3.35;;;2.20;;
18820;SDS011;9539;59.332;18.034;2023-03-08T14:14:21;2.33;;;1.92;;
18820;SDS011;9539;59.332;18.034;2023-03-08T14:16:50;4.85;;;2.13;;
18820;SDS011;9539;59.332;18.034;2023-03-08T14:19:19;2.15;;;1.98;;
18820;SDS011;9539;59.332;18.034;2023-03-08T14:21:46;2.80;;;1.90;;
18820;SDS011;9539;59.332;18.034;2023-03-08T14:24:14;3.20;;;2.35;;
18820;SDS011;9539;59.332;18.034;2023-03-08T14:26:41;2.20;;;2.00;;
18820;SDS011;9539;59.332;18.034;2023-03-08T14:29:16;2.05;;;1.85;;
18820;SDS011;9539;59.332;18.034;2023-03-08T14:31:50;2.80;;;2.00;;
18820;SDS011;9539;59.332;18.034;2023-03-08T14:34:18;3.25;;;2.20;;
18820;SDS011;9539;59.332;18.034;2023-03-08T14:36:44;2.75;;;2.40;;